sensor_id;sensor_type;location;lat;lon;timestamp;temperature;humidity
35027;DHT22;60696;51.426;6.934;2023-07-31T04:00:18;16.20;99.90
35027;DHT22;60696;51.426;6.934;2023-07-31T04:02:44;16.30;99.90
35027;DHT22;60696;51.426;6.934;2023-07-31T04:05:12;16.30;99.90
35027;DHT22;60696;51.426;6.934;2023-07-31T04:07:38;16.30;99.90
35027;DHT22;60696;51.426;6.934;2023-07-31T04:10:04;16.30;99.90
35027;DHT22;60696;51.426;6.934;2023-07-31T04:12:29;16.30;99.90
35027;DHT22;60696;51.426;6.934;2023-07-31T04:14:55;16.40;99.90
35027;DHT22;60696;51.426;6.934;2023-07-31T04:17:20;16.30;99.90
35027;DHT22;60696;51.426;6.934;2023-07-31T04:19:46;16.40;99.90
35027;DHT22;60696;51.426;6.934;2023-07-31T04:22:12;16.40;99.90
35027;DHT22;60696;51.426;6.934;2023-07-31T04:24:37;16.40;99.90
35027;DHT22;60696;51.426;6.934;2023-07-31T04:27:03;16.40;99.90
35027;DHT22;60696;51.426;6.934;2023-07-31T04:29:28;16.40;99.90
35027;DHT22;60696;51.426;6.934;2023-07-31T04:31:54;16.40;99.90
35027;DHT22;60696;51.426;6.934;2023-07-31T04:34:20;16.40;99.90
35027;DHT22;60696;51.426;6.934;2023-07-31T04:36:45;16.40;99.90
35027;DHT22;60696;51.426;6.934;2023-07-31T04:39:11;16.40;99.90
35027;DHT22;60696;51.426;6.934;2023-07-31T04:41:36;16.40;99.90
35027;DHT22;60696;51.426;6.934;2023-07-31T04:44:02;16.30;99.90
35027;DHT22;60696;51.426;6.934;2023-07-31T04:46:29;16.40;99.90
35027;DHT22;60696;51.426;6.934;2023-07-31T04:48:56;16.40;99.90
35027;DHT22;60696;51.426;6.934;2023-07-31T04:51:21;16.40;99.90
35027;DHT22;60696;51.426;6.934;2023-07-31T04:53:48;16.50;99.90
35027;DHT22;60696;51.426;6.934;2023-07-31T04:56:13;16.50;99.90
35027;DHT22;60696;51.426;6.934;2023-07-31T04:58:40;16.50;99.90
35027;DHT22;60696;51.426;6.934;2023-07-31T05:01:06;16.50;99.90
35027;DHT22;60696;51.426;6.934;2023-07-31T05:03:32;16.50;99.90
35027;DHT22;60696;51.426;6.934;2023-07-31T05:05:57;16.50;99.90
35027;DHT22;60696;51.426;6.934;2023-07-31T05:08:23;16.60;99.90
35027;DHT22;60696;51.426;6.934;2023-07-31T05:10:48;16.60;99.90
35027;DHT22;60696;51.426;6.934;2023-07-31T05:13:14;16.60;99.90
35027;DHT22;60696;51.426;6.934;2023-07-31T05:15:41;16.70;99.90
35027;DHT22;60696;51.426;6.934;2023-07-31T05:18:06;16.60;99.90
35027;DHT22;60696;51.426;6.934;2023-07-31T05:20:32;16.60;99.90
35027;DHT22;60696;51.426;6.934;2023-07-31T05:22:57;16.70;99.90
35027;DHT22;60696;51.426;6.934;2023-07-31T05:25:23;16.70;99.90
35027;DHT22;60696;51.426;6.934;2023-07-31T05:27:51;16.70;99.90
35027;DHT22;60696;51.426;6.934;2023-07-31T05:30:19;16.70;99.90
35027;DHT22;60696;51.426;6.934;2023-07-31T05:32:45;16.70;99.90
35027;DHT22;60696;51.426;6.934;2023-07-31T05:35:10;16.80;99.90
35027;DHT22;60696;51.426;6.934;2023-07-31T05:37:36;16.80;99.90
35027;DHT22;60696;51.426;6.934;2023-07-31T05:40:01;16.70;99.90
35027;DHT22;60696;51.426;6.934;2023-07-31T05:42:27;16.70;99.90
35027;DHT22;60696;51.426;6.934;2023-07-31T05:44:53;16.60;99.90
35027;DHT22;60696;51.426;6.934;2023-07-31T05:47:18;16.70;99.90
35027;DHT22;60696;51.426;6.934;2023-07-31T05:49:44;16.70;99.90
35027;DHT22;60696;51.426;6.934;2023-07-31T05:52:09;16.70;99.90
35027;DHT22;60696;51.426;6.934;2023-07-31T05:54:35;16.70;99.90
35027;DHT22;60696;51.426;6.934;2023-07-31T05:57:01;16.70;99.90
35027;DHT22;60696;51.426;6.934;2023-07-31T05:59:26;16.70;99.90
35027;DHT22;60696;51.426;6.934;2023-07-31T06:01:52;16.80;99.90
35027;DHT22;60696;51.426;6.934;2023-07-31T06:04:18;16.80;99.90
35027;DHT22;60696;51.426;6.934;2023-07-31T06:06:43;16.80;99.90
35027;DHT22;60696;51.426;6.934;2023-07-31T06:09:09;16.80;99.90
35027;DHT22;60696;51.426;6.934;2023-07-31T06:11:35;16.80;99.90
35027;DHT22;60696;51.426;6.934;2023-07-31T06:14:00;16.90;99.90
35027;DHT22;60696;51.426;6.934;2023-07-31T06:16:26;16.90;99.90
35027;DHT22;60696;51.426;6.934;2023-07-31T06:18:52;17.00;99.90
35027;DHT22;60696;51.426;6.934;2023-07-31T06:21:18;16.90;99.90
35027;DHT22;60696;51.426;6.934;2023-07-31T06:23:43;16.90;99.90
35027;DHT22;60696;51.426;6.934;2023-07-31T06:26:12;16.90;99.90
35027;DHT22;60696;51.426;6.934;2023-07-31T06:28:37;16.90;99.90
35027;DHT22;60696;51.426;6.934;2023-07-31T06:31:03;16.80;99.90
35027;DHT22;60696;51.426;6.934;2023-07-31T06:33:29;16.80;99.90
35027;DHT22;60696;51.426;6.934;2023-07-31T06:35:54;16.80;99.90
35027;DHT22;60696;51.426;6.934;2023-07-31T06:38:26;16.70;99.90
35027;DHT22;60696;51.426;6.934;2023-07-31T06:40:52;16.70;99.90
35027;DHT22;60696;51.426;6.934;2023-07-31T06:43:18;16.70;99.90
35027;DHT22;60696;51.426;6.934;2023-07-31T06:45:44;16.60;99.90
35027;DHT22;60696;51.426;6.934;2023-07-31T06:48:10;16.60;99.90
35027;DHT22;60696;51.426;6.934;2023-07-31T06:50:35;16.60;99.90
35027;DHT22;60696;51.426;6.934;2023-07-31T06:53:01;16.60;99.90
35027;DHT22;60696;51.426;6.934;2023-07-31T06:55:33;16.50;99.90
35027;DHT22;60696;51.426;6.934;2023-07-31T06:57:59;16.50;99.90
35027;DHT22;60696;51.426;6.934;2023-07-31T07:00:24;16.50;99.90
35027;DHT22;60696;51.426;6.934;2023-07-31T07:02:50;16.60;99.90
35027;DHT22;60696;51.426;6.934;2023-07-31T07:05:16;16.60;99.90
35027;DHT22;60696;51.426;6.934;2023-07-31T07:07:43;16.60;99.90
35027;DHT22;60696;51.426;6.934;2023-07-31T07:10:09;16.50;99.90
35027;DHT22;60696;51.426;6.934;2023-07-31T07:12:35;16.60;99.90
35027;DHT22;60696;51.426;6.934;2023-07-31T07:15:01;16.50;99.90
35027;DHT22;60696;51.426;6.934;2023-07-31T07:17:28;16.60;99.90
35027;DHT22;60696;51.426;6.934;2023-07-31T07:19:55;16.50;99.90
35027;DHT22;60696;51.426;6.934;2023-07-31T07:22:21;16.60;99.90
35027;DHT22;60696;51.426;6.934;2023-07-31T07:24:46;16.50;99.90
35027;DHT22;60696;51.426;6.934;2023-07-31T07:27:12;16.50;99.90
35027;DHT22;60696;51.426;6.934;2023-07-31T07:29:38;16.50;99.90
35027;DHT22;60696;51.426;6.934;2023-07-31T07:32:04;16.50;99.90
35027;DHT22;60696;51.426;6.934;2023-07-31T07:34:30;16.50;99.90
35027;DHT22;60696;51.426;6.934;2023-07-31T07:36:55;16.50;99.90
35027;DHT22;60696;51.426;6.934;2023-07-31T07:39:23;16.60;99.90
35027;DHT22;60696;51.426;6.934;2023-07-31T07:41:51;16.50;99.90
35027;DHT22;60696;51.426;6.934;2023-07-31T07:44:18;16.50;99.90
35027;DHT22;60696;51.426;6.934;2023-07-31T07:46:44;16.50;99.90
35027;DHT22;60696;51.426;6.934;2023-07-31T07:49:09;16.50;99.90
35027;DHT22;60696;51.426;6.934;2023-07-31T07:51:35;16.60;99.90
35027;DHT22;60696;51.426;6.934;2023-07-31T07:54:01;16.70;99.90
35027;DHT22;60696;51.426;6.934;2023-07-31T07:56:27;16.70;99.90
35027;DHT22;60696;51.426;6.934;2023-07-31T07:58:55;16.60;99.90
35027;DHT22;60696;51.426;6.934;2023-07-31T08:01:21;16.60;99.90
35027;DHT22;60696;51.426;6.934;2023-07-31T08:03:47;16.50;99.90
35027;DHT22;60696;51.426;6.934;2023-07-31T08:06:13;16.50;99.90
35027;DHT22;60696;51.426;6.934;2023-07-31T08:08:39;16.60;99.90
35027;DHT22;60696;51.426;6.934;2023-07-31T08:11:05;16.50;99.90
35027;DHT22;60696;51.426;6.934;2023-07-31T08:13:36;16.50;99.90
35027;DHT22;60696;51.426;6.934;2023-07-31T08:16:03;16.60;99.90
35027;DHT22;60696;51.426;6.934;2023-07-31T08:18:30;16.70;99.90
35027;DHT22;60696;51.426;6.934;2023-07-31T08:20:56;17.00;99.90
35027;DHT22;60696;51.426;6.934;2023-07-31T08:23:22;16.90;99.90
35027;DHT22;60696;51.426;6.934;2023-07-31T08:25:47;16.80;99.90
35027;DHT22;60696;51.426;6.934;2023-07-31T08:28:15;16.70;99.90
35027;DHT22;60696;51.426;6.934;2023-07-31T08:30:43;16.70;99.90
35027;DHT22;60696;51.426;6.934;2023-07-31T08:33:09;16.70;99.90
35027;DHT22;60696;51.426;6.934;2023-07-31T08:35:34;16.70;99.90
35027;DHT22;60696;51.426;6.934;2023-07-31T08:38:00;16.70;99.90
35027;DHT22;60696;51.426;6.934;2023-07-31T08:40:26;16.70;99.90
35027;DHT22;60696;51.426;6.934;2023-07-31T08:42:54;16.70;99.90
35027;DHT22;60696;51.426;6.934;2023-07-31T08:45:22;16.70;99.90
35027;DHT22;60696;51.426;6.934;2023-07-31T08:47:52;16.70;99.90
35027;DHT22;60696;51.426;6.934;2023-07-31T08:50:19;16.70;99.90
35027;DHT22;60696;51.426;6.934;2023-07-31T08:52:46;16.60;99.90
35027;DHT22;60696;51.426;6.934;2023-07-31T08:55:12;16.60;99.90
35027;DHT22;60696;51.426;6.934;2023-07-31T08:57:39;16.80;99.90
35027;DHT22;60696;51.426;6.934;2023-07-31T09:00:06;16.70;99.90
35027;DHT22;60696;51.426;6.934;2023-07-31T09:02:41;16.70;99.90
35027;DHT22;60696;51.426;6.934;2023-07-31T09:05:18;16.70;99.90
35027;DHT22;60696;51.426;6.934;2023-07-31T09:07:46;16.70;99.90
35027;DHT22;60696;51.426;6.934;2023-07-31T09:10:12;16.60;99.90
35027;DHT22;60696;51.426;6.934;2023-07-31T09:12:39;16.50;99.90
35027;DHT22;60696;51.426;6.934;2023-07-31T09:15:05;16.40;99.90
35027;DHT22;60696;51.426;6.934;2023-07-31T09:17:33;16.40;99.90
35027;DHT22;60696;51.426;6.934;2023-07-31T09:22:38;16.40;99.90
35027;DHT22;60696;51.426;6.934;2023-07-31T09:25:23;16.50;99.90
35027;DHT22;60696;51.426;6.934;2023-07-31T09:28:03;16.50;99.90
35027;DHT22;60696;51.426;6.934;2023-07-31T09:30:29;16.60;99.90
35027;DHT22;60696;51.426;6.934;2023-07-31T09:33:04;16.70;99.90
35027;DHT22;60696;51.426;6.934;2023-07-31T09:35:35;16.60;99.90
35027;DHT22;60696;51.426;6.934;2023-07-31T09:38:08;16.60;99.90
35027;DHT22;60696;51.426;6.934;2023-07-31T09:40:40;16.60;99.90
35027;DHT22;60696;51.426;6.934;2023-07-31T09:43:08;16.60;99.90
35027;DHT22;60696;51.426;6.934;2023-07-31T09:45:41;16.70;99.90
35027;DHT22;60696;51.426;6.934;2023-07-31T09:48:11;16.70;99.90
35027;DHT22;60696;51.426;6.934;2023-07-31T09:50:43;16.70;99.90
35027;DHT22;60696;51.426;6.934;2023-07-31T09:53:12;16.70;99.90
35027;DHT22;60696;51.426;6.934;2023-07-31T09:55:39;16.70;99.90
35027;DHT22;60696;51.426;6.934;2023-07-31T09:58:07;16.80;99.90
35027;DHT22;60696;51.426;6.934;2023-07-31T10:00:33;16.80;99.90
35027;DHT22;60696;51.426;6.934;2023-07-31T10:03:09;16.80;99.90
35027;DHT22;60696;51.426;6.934;2023-07-31T10:05:43;16.80;99.90
35027;DHT22;60696;51.426;6.934;2023-07-31T10:08:13;16.80;99.90
35027;DHT22;60696;51.426;6.934;2023-07-31T10:10:42;16.80;99.90
35027;DHT22;60696;51.426;6.934;2023-07-31T10:13:09;16.80;99.90
35027;DHT22;60696;51.426;6.934;2023-07-31T10:15:36;16.80;99.90
35027;DHT22;60696;51.426;6.934;2023-07-31T10:18:01;16.70;99.90
35027;DHT22;60696;51.426;6.934;2023-07-31T10:20:28;16.70;99.90
35027;DHT22;60696;51.426;6.934;2023-07-31T10:22:57;16.80;99.90
35027;DHT22;60696;51.426;6.934;2023-07-31T10:25:27;16.90;99.90
35027;DHT22;60696;51.426;6.934;2023-07-31T10:27:54;16.90;99.90
35027;DHT22;60696;51.426;6.934;2023-07-31T10:30:26;16.90;99.90
35027;DHT22;60696;51.426;6.934;2023-07-31T10:32:53;16.90;99.90
35027;DHT22;60696;51.426;6.934;2023-07-31T10:35:20;16.80;99.90
35027;DHT22;60696;51.426;6.934;2023-07-31T10:37:50;16.80;99.90
35027;DHT22;60696;51.426;6.934;2023-07-31T10:40:23;16.90;99.90
35027;DHT22;60696;51.426;6.934;2023-07-31T10:42:51;16.90;99.90
35027;DHT22;60696;51.426;6.934;2023-07-31T10:48:15;17.00;99.90
35027;DHT22;60696;51.426;6.934;2023-07-31T10:51:08;17.10;99.90
35027;DHT22;60696;51.426;6.934;2023-07-31T10:53:34;17.10;99.90
35027;DHT22;60696;51.426;6.934;2023-07-31T10:56:07;17.30;99.90
35027;DHT22;60696;51.426;6.934;2023-07-31T10:58:34;17.30;99.90
35027;DHT22;60696;51.426;6.934;2023-07-31T11:01:02;17.40;99.90
35027;DHT22;60696;51.426;6.934;2023-07-31T11:03:49;17.40;99.90
35027;DHT22;60696;51.426;6.934;2023-07-31T11:06:17;17.70;99.90
35027;DHT22;60696;51.426;6.934;2023-07-31T11:08:48;17.80;99.90
35027;DHT22;60696;51.426;6.934;2023-07-31T11:11:19;17.80;99.90
35027;DHT22;60696;51.426;6.934;2023-07-31T11:13:49;17.80;99.90
35027;DHT22;60696;51.426;6.934;2023-07-31T11:16:16;17.80;99.90
35027;DHT22;60696;51.426;6.934;2023-07-31T11:18:43;17.80;99.90
35027;DHT22;60696;51.426;6.934;2023-07-31T11:21:13;17.70;99.90
35027;DHT22;60696;51.426;6.934;2023-07-31T11:23:39;17.80;99.90
35027;DHT22;60696;51.426;6.934;2023-07-31T11:26:05;17.90;99.90
35027;DHT22;60696;51.426;6.934;2023-07-31T11:28:35;17.90;99.90
35027;DHT22;60696;51.426;6.934;2023-07-31T11:31:01;18.00;99.90
35027;DHT22;60696;51.426;6.934;2023-07-31T11:33:27;18.00;99.90
35027;DHT22;60696;51.426;6.934;2023-07-31T11:35:53;18.00;99.90
35027;DHT22;60696;51.426;6.934;2023-07-31T11:38:22;18.10;99.90
35027;DHT22;60696;51.426;6.934;2023-07-31T11:40:57;18.10;99.90
35027;DHT22;60696;51.426;6.934;2023-07-31T11:43:23;18.30;99.90
35027;DHT22;60696;51.426;6.934;2023-07-31T11:45:54;18.30;99.90
35027;DHT22;60696;51.426;6.934;2023-07-31T11:48:27;18.30;99.90
35027;DHT22;60696;51.426;6.934;2023-07-31T11:50:56;18.20;99.90
35027;DHT22;60696;51.426;6.934;2023-07-31T11:53:28;18.20;99.90
35027;DHT22;60696;51.426;6.934;2023-07-31T11:56:00;18.20;99.90
35027;DHT22;60696;51.426;6.934;2023-07-31T11:58:27;18.20;99.90
35027;DHT22;60696;51.426;6.934;2023-07-31T12:00:53;18.20;99.90
35027;DHT22;60696;51.426;6.934;2023-07-31T12:03:19;18.30;99.90
35027;DHT22;60696;51.426;6.934;2023-07-31T12:05:47;18.30;99.90
35027;DHT22;60696;51.426;6.934;2023-07-31T12:08:14;18.10;99.90
35027;DHT22;60696;51.426;6.934;2023-07-31T12:10:39;18.00;99.90
35027;DHT22;60696;51.426;6.934;2023-07-31T12:13:11;17.90;99.90
35027;DHT22;60696;51.426;6.934;2023-07-31T12:15:41;18.00;99.90
35027;DHT22;60696;51.426;6.934;2023-07-31T12:18:13;17.90;99.90
35027;DHT22;60696;51.426;6.934;2023-07-31T12:20:44;17.80;99.90
35027;DHT22;60696;51.426;6.934;2023-07-31T12:23:27;17.80;99.90
35027;DHT22;60696;51.426;6.934;2023-07-31T12:26:03;17.80;99.90
35027;DHT22;60696;51.426;6.934;2023-07-31T12:28:30;17.70;99.90
35027;DHT22;60696;51.426;6.934;2023-07-31T12:31:00;17.70;99.90
35027;DHT22;60696;51.426;6.934;2023-07-31T12:33:31;17.70;99.90
35027;DHT22;60696;51.426;6.934;2023-07-31T12:35:58;17.80;99.90
35027;DHT22;60696;51.426;6.934;2023-07-31T12:38:23;17.90;99.90
35027;DHT22;60696;51.426;6.934;2023-07-31T12:40:49;17.90;99.90
35027;DHT22;60696;51.426;6.934;2023-07-31T12:43:17;17.90;99.90
35027;DHT22;60696;51.426;6.934;2023-07-31T12:45:48;18.00;99.90
35027;DHT22;60696;51.426;6.934;2023-07-31T12:48:14;18.00;99.90
35027;DHT22;60696;51.426;6.934;2023-07-31T12:50:40;18.00;99.90
35027;DHT22;60696;51.426;6.934;2023-07-31T12:53:06;18.10;99.90
35027;DHT22;60696;51.426;6.934;2023-07-31T12:55:32;18.00;99.90
35027;DHT22;60696;51.426;6.934;2023-07-31T12:58:02;17.90;99.90
35027;DHT22;60696;51.426;6.934;2023-07-31T13:00:28;17.90;99.90
35027;DHT22;60696;51.426;6.934;2023-07-31T13:02:54;17.90;99.90
35027;DHT22;60696;51.426;6.934;2023-07-31T13:05:22;17.80;99.90
35027;DHT22;60696;51.426;6.934;2023-07-31T13:07:48;17.80;99.90
35027;DHT22;60696;51.426;6.934;2023-07-31T13:10:14;17.70;99.90
35027;DHT22;60696;51.426;6.934;2023-07-31T13:12:39;17.80;99.90
35027;DHT22;60696;51.426;6.934;2023-07-31T13:15:06;17.70;99.90
35027;DHT22;60696;51.426;6.934;2023-07-31T13:17:39;17.70;99.90
35027;DHT22;60696;51.426;6.934;2023-07-31T13:20:05;17.90;99.90
35027;DHT22;60696;51.426;6.934;2023-07-31T13:22:32;18.10;99.90
35027;DHT22;60696;51.426;6.934;2023-07-31T13:24:57;18.20;99.90
35027;DHT22;60696;51.426;6.934;2023-07-31T13:27:23;18.10;99.90
35027;DHT22;60696;51.426;6.934;2023-07-31T13:29:54;18.20;99.90
35027;DHT22;60696;51.426;6.934;2023-07-31T13:32:20;18.20;99.90
35027;DHT22;60696;51.426;6.934;2023-07-31T13:34:47;18.20;99.90
35027;DHT22;60696;51.426;6.934;2023-07-31T13:37:13;18.10;99.90
35027;DHT22;60696;51.426;6.934;2023-07-31T13:39:39;18.20;99.90
35027;DHT22;60696;51.426;6.934;2023-07-31T13:42:06;18.30;99.90
35027;DHT22;60696;51.426;6.934;2023-07-31T13:44:35;18.40;99.90
35027;DHT22;60696;51.426;6.934;2023-07-31T13:47:01;18.30;99.90
35027;DHT22;60696;51.426;6.934;2023-07-31T13:49:28;18.30;99.90
35027;DHT22;60696;51.426;6.934;2023-07-31T13:51:53;18.30;99.90
35027;DHT22;60696;51.426;6.934;2023-07-31T13:54:19;18.40;99.90
35027;DHT22;60696;51.426;6.934;2023-07-31T13:56:45;18.50;99.90
35027;DHT22;60696;51.426;6.934;2023-07-31T13:59:11;18.60;99.90
35027;DHT22;60696;51.426;6.934;2023-07-31T14:01:37;18.60;99.90
35027;DHT22;60696;51.426;6.934;2023-07-31T14:04:05;18.70;99.90
35027;DHT22;60696;51.426;6.934;2023-07-31T14:06:30;18.90;99.90
35027;DHT22;60696;51.426;6.934;2023-07-31T14:08:56;19.10;99.90
35027;DHT22;60696;51.426;6.934;2023-07-31T14:11:22;19.40;99.90
35027;DHT22;60696;51.426;6.934;2023-07-31T14:13:49;19.60;99.90
35027;DHT22;60696;51.426;6.934;2023-07-31T14:16:15;19.70;99.90
35027;DHT22;60696;51.426;6.934;2023-07-31T14:18:41;19.70;99.90
35027;DHT22;60696;51.426;6.934;2023-07-31T14:21:06;19.70;99.90
35027;DHT22;60696;51.426;6.934;2023-07-31T14:23:32;19.70;99.90
35027;DHT22;60696;51.426;6.934;2023-07-31T14:25:57;19.60;99.90
35027;DHT22;60696;51.426;6.934;2023-07-31T14:28:25;19.40;99.90
35027;DHT22;60696;51.426;6.934;2023-07-31T14:30:51;19.20;99.90
35027;DHT22;60696;51.426;6.934;2023-07-31T14:33:17;19.00;99.90
35027;DHT22;60696;51.426;6.934;2023-07-31T14:35:42;19.00;99.90
35027;DHT22;60696;51.426;6.934;2023-07-31T14:38:08;18.90;99.90
35027;DHT22;60696;51.426;6.934;2023-07-31T14:40:34;18.70;99.90
35027;DHT22;60696;51.426;6.934;2023-07-31T14:43:02;18.70;99.90
35027;DHT22;60696;51.426;6.934;2023-07-31T14:45:28;18.60;99.90
35027;DHT22;60696;51.426;6.934;2023-07-31T14:47:53;18.50;99.90
35027;DHT22;60696;51.426;6.934;2023-07-31T14:50:25;18.50;99.90
35027;DHT22;60696;51.426;6.934;2023-07-31T14:52:51;18.50;99.90
35027;DHT22;60696;51.426;6.934;2023-07-31T14:55:22;18.30;99.90
35027;DHT22;60696;51.426;6.934;2023-07-31T14:57:48;18.30;99.90
35027;DHT22;60696;51.426;6.934;2023-07-31T15:00:16;18.30;99.90
35027;DHT22;60696;51.426;6.934;2023-07-31T15:02:41;18.20;99.90
35027;DHT22;60696;51.426;6.934;2023-07-31T15:05:07;18.10;99.90
35027;DHT22;60696;51.426;6.934;2023-07-31T15:07:33;18.10;99.90
35027;DHT22;60696;51.426;6.934;2023-07-31T15:10:00;18.10;99.90
35027;DHT22;60696;51.426;6.934;2023-07-31T15:12:26;18.10;99.90
35027;DHT22;60696;51.426;6.934;2023-07-31T15:14:53;18.10;99.90
35027;DHT22;60696;51.426;6.934;2023-07-31T15:17:18;18.10;99.90
35027;DHT22;60696;51.426;6.934;2023-07-31T15:19:44;18.10;99.90
35027;DHT22;60696;51.426;6.934;2023-07-31T15:22:10;18.10;99.90
35027;DHT22;60696;51.426;6.934;2023-07-31T15:24:35;18.00;99.90
35027;DHT22;60696;51.426;6.934;2023-07-31T15:27:01;18.10;99.90
35027;DHT22;60696;51.426;6.934;2023-07-31T15:29:29;18.20;99.90
35027;DHT22;60696;51.426;6.934;2023-07-31T15:31:55;18.30;99.90
35027;DHT22;60696;51.426;6.934;2023-07-31T15:34:21;18.30;99.90
35027;DHT22;60696;51.426;6.934;2023-07-31T15:36:46;18.30;99.90
35027;DHT22;60696;51.426;6.934;2023-07-31T15:39:12;18.30;99.90
35027;DHT22;60696;51.426;6.934;2023-07-31T15:41:38;18.30;99.90
35027;DHT22;60696;51.426;6.934;2023-07-31T15:44:07;18.40;99.90
35027;DHT22;60696;51.426;6.934;2023-07-31T15:46:33;18.40;99.90
35027;DHT22;60696;51.426;6.934;2023-07-31T15:48:58;18.40;99.90
35027;DHT22;60696;51.426;6.934;2023-07-31T15:51:24;18.40;99.90
35027;DHT22;60696;51.426;6.934;2023-07-31T15:53:50;18.50;99.90
35027;DHT22;60696;51.426;6.934;2023-07-31T15:56:16;18.50;99.90
35027;DHT22;60696;51.426;6.934;2023-07-31T15:58:42;18.50;99.90
35027;DHT22;60696;51.426;6.934;2023-07-31T16:01:08;18.50;99.90
35027;DHT22;60696;51.426;6.934;2023-07-31T16:03:33;18.50;99.90
35027;DHT22;60696;51.426;6.934;2023-07-31T16:05:59;18.40;99.90
35027;DHT22;60696;51.426;6.934;2023-07-31T16:08:24;18.30;99.90
35027;DHT22;60696;51.426;6.934;2023-07-31T16:10:50;18.10;99.90
35027;DHT22;60696;51.426;6.934;2023-07-31T16:13:16;18.10;99.90
35027;DHT22;60696;51.426;6.934;2023-07-31T16:15:42;18.00;99.90
35027;DHT22;60696;51.426;6.934;2023-07-31T16:18:07;17.90;99.90
35027;DHT22;60696;51.426;6.934;2023-07-31T16:20:33;17.90;99.90
35027;DHT22;60696;51.426;6.934;2023-07-31T16:22:58;17.70;99.90
35027;DHT22;60696;51.426;6.934;2023-07-31T16:25:24;17.70;99.90
35027;DHT22;60696;51.426;6.934;2023-07-31T16:27:50;17.80;99.90
35027;DHT22;60696;51.426;6.934;2023-07-31T16:30:15;17.70;99.90
35027;DHT22;60696;51.426;6.934;2023-07-31T16:32:41;17.60;99.90
35027;DHT22;60696;51.426;6.934;2023-07-31T16:35:07;17.60;99.90
35027;DHT22;60696;51.426;6.934;2023-07-31T16:37:33;17.60;99.90
35027;DHT22;60696;51.426;6.934;2023-07-31T16:39:58;17.60;99.90
35027;DHT22;60696;51.426;6.934;2023-07-31T16:42:24;17.60;99.90
35027;DHT22;60696;51.426;6.934;2023-07-31T16:44:49;17.70;99.90
35027;DHT22;60696;51.426;6.934;2023-07-31T16:47:15;17.70;99.90
35027;DHT22;60696;51.426;6.934;2023-07-31T16:49:41;17.80;99.90
35027;DHT22;60696;51.426;6.934;2023-07-31T16:52:07;17.80;99.90
35027;DHT22;60696;51.426;6.934;2023-07-31T16:54:33;17.70;99.90
35027;DHT22;60696;51.426;6.934;2023-07-31T16:56:59;17.60;99.90
35027;DHT22;60696;51.426;6.934;2023-07-31T16:59:25;17.60;99.90
35027;DHT22;60696;51.426;6.934;2023-07-31T17:01:50;17.50;99.90
35027;DHT22;60696;51.426;6.934;2023-07-31T17:04:16;17.50;99.90
35027;DHT22;60696;51.426;6.934;2023-07-31T17:06:42;17.50;99.90
35027;DHT22;60696;51.426;6.934;2023-07-31T17:09:08;17.50;99.90
35027;DHT22;60696;51.426;6.934;2023-07-31T17:11:34;17.60;99.90
35027;DHT22;60696;51.426;6.934;2023-07-31T17:14:00;17.50;99.90
35027;DHT22;60696;51.426;6.934;2023-07-31T17:16:28;17.50;99.90
35027;DHT22;60696;51.426;6.934;2023-07-31T17:18:54;17.50;99.90
35027;DHT22;60696;51.426;6.934;2023-07-31T17:21:20;17.40;99.90
35027;DHT22;60696;51.426;6.934;2023-07-31T17:23:46;17.30;99.90
35027;DHT22;60696;51.426;6.934;2023-07-31T17:26:11;17.30;99.90
35027;DHT22;60696;51.426;6.934;2023-07-31T17:28:42;17.30;99.90
35027;DHT22;60696;51.426;6.934;2023-07-31T17:31:07;17.30;99.90
35027;DHT22;60696;51.426;6.934;2023-07-31T17:33:34;17.20;99.90
35027;DHT22;60696;51.426;6.934;2023-07-31T17:36:00;17.20;99.90
35027;DHT22;60696;51.426;6.934;2023-07-31T17:38:25;17.20;99.90
35027;DHT22;60696;51.426;6.934;2023-07-31T17:40:51;17.20;99.90
35027;DHT22;60696;51.426;6.934;2023-07-31T17:43:18;17.20;99.90
35027;DHT22;60696;51.426;6.934;2023-07-31T17:45:43;17.10;99.90
35027;DHT22;60696;51.426;6.934;2023-07-31T17:48:09;17.20;99.90
35027;DHT22;60696;51.426;6.934;2023-07-31T17:50:34;17.10;99.90
35027;DHT22;60696;51.426;6.934;2023-07-31T17:53:00;17.00;99.90
35027;DHT22;60696;51.426;6.934;2023-07-31T17:55:26;17.10;99.90
35027;DHT22;60696;51.426;6.934;2023-07-31T17:57:51;17.00;99.90
35027;DHT22;60696;51.426;6.934;2023-07-31T18:00:17;17.00;99.90
35027;DHT22;60696;51.426;6.934;2023-07-31T18:02:46;17.00;99.90
35027;DHT22;60696;51.426;6.934;2023-07-31T18:05:12;16.90;99.90
35027;DHT22;60696;51.426;6.934;2023-07-31T18:07:37;16.90;99.90
35027;DHT22;60696;51.426;6.934;2023-07-31T18:10:03;16.90;99.90
35027;DHT22;60696;51.426;6.934;2023-07-31T18:12:29;16.90;99.90
35027;DHT22;60696;51.426;6.934;2023-07-31T18:14:55;16.80;99.90
35027;DHT22;60696;51.426;6.934;2023-07-31T18:17:20;16.80;99.90
35027;DHT22;60696;51.426;6.934;2023-07-31T18:19:49;16.80;99.90
35027;DHT22;60696;51.426;6.934;2023-07-31T18:22:14;16.80;99.90
35027;DHT22;60696;51.426;6.934;2023-07-31T18:24:43;16.80;99.90
35027;DHT22;60696;51.426;6.934;2023-07-31T18:27:09;16.80;99.90
35027;DHT22;60696;51.426;6.934;2023-07-31T18:29:34;16.80;99.90
35027;DHT22;60696;51.426;6.934;2023-07-31T18:32:01;16.80;99.90
35027;DHT22;60696;51.426;6.934;2023-07-31T18:34:29;16.80;99.90
35027;DHT22;60696;51.426;6.934;2023-07-31T18:36:54;16.80;99.90
35027;DHT22;60696;51.426;6.934;2023-07-31T18:39:20;16.80;99.90
35027;DHT22;60696;51.426;6.934;2023-07-31T18:41:46;16.70;99.90
35027;DHT22;60696;51.426;6.934;2023-07-31T18:44:11;16.70;99.90
35027;DHT22;60696;51.426;6.934;2023-07-31T18:46:37;16.80;99.90
35027;DHT22;60696;51.426;6.934;2023-07-31T18:49:02;16.80;99.90
35027;DHT22;60696;51.426;6.934;2023-07-31T18:51:28;16.80;99.90
35027;DHT22;60696;51.426;6.934;2023-07-31T18:53:55;16.70;99.90
35027;DHT22;60696;51.426;6.934;2023-07-31T18:56:21;16.80;99.90
35027;DHT22;60696;51.426;6.934;2023-07-31T18:58:46;16.70;99.90
35027;DHT22;60696;51.426;6.934;2023-07-31T19:01:14;16.70;99.90
35027;DHT22;60696;51.426;6.934;2023-07-31T19:03:40;16.70;99.90
35027;DHT22;60696;51.426;6.934;2023-07-31T19:06:05;16.70;99.90
35027;DHT22;60696;51.426;6.934;2023-07-31T19:08:33;16.70;99.90
35027;DHT22;60696;51.426;6.934;2023-07-31T19:11:00;16.70;99.90
35027;DHT22;60696;51.426;6.934;2023-07-31T19:13:26;16.70;99.90
35027;DHT22;60696;51.426;6.934;2023-07-31T19:15:52;16.70;99.90
35027;DHT22;60696;51.426;6.934;2023-07-31T19:18:19;16.70;99.90
35027;DHT22;60696;51.426;6.934;2023-07-31T19:20:44;16.70;99.90
35027;DHT22;60696;51.426;6.934;2023-07-31T19:23:10;16.70;99.90
35027;DHT22;60696;51.426;6.934;2023-07-31T19:25:36;16.70;99.90
35027;DHT22;60696;51.426;6.934;2023-07-31T19:28:02;16.70;99.90
35027;DHT22;60696;51.426;6.934;2023-07-31T19:30:28;16.70;99.90
35027;DHT22;60696;51.426;6.934;2023-07-31T19:32:53;16.70;99.90